Edward Cornwallis — CGJV — position and weather

sailwx.info

Track history (hours):
 
Tides and Currents Weather Stations Pressure Air Temp Water Temp Dewpoint Dewpoint Depression Visibility Wind Speed Wind Dir Waves Ship Positions

Edward Cornwallis

Last reported at 2017-Mar-24 17:00 UTC. Time now 2017-Mar-24 18:10 UTC.
Position N 48°42' W 068°24'.

Length 83 m; draft 6 m.

Type: SAR. MMSI: 316020000.

Wind from 210 at 22 knots

Barometer 1017.9 mb
Air temperature -1.0 ° C
Dewpoint -7.3 ° C

Date/timePositionNaut miles runAvg speedWind from/ knotsBaromVisibWave heightAir tempDewpointWater temp
2017-Mar-24 17:00N 48°42' W 068°24'1211.9 210 / 221017.9 -1.0-7.3
2017-Mar-24 16:00N 48°42' W 068°06'1313.3 210 / 191019.7 -1.0-10.2
2017-Mar-24 15:00N 48°48' W 067°48'8 2.6 170 / 91022.2 -3.5-14.4
2017-Mar-24 12:00N 48°48' W 067°36'0 0.0 190 / 71026.2 -9.8-17.6
2017-Mar-24 06:00N 48°48' W 067°36'0 0.0 320 / 71028.1 -6.8-17.2
2017-Mar-24 00:00N 48°48' W 067°36'0 0.0 320 / 161026.8 -5.5-16.8
2017-Mar-23 19:00N 48°48' W 067°36'6 6.0 300 / 161025.1 -8.4-16.3
2017-Mar-23 18:00N 48°54' W 067°36'1211.8 270 / 191025.0 -8.9-17.3
2017-Mar-23 17:00N 48°54' W 067°54'1313.3 270 / 171025.6 -10.9-19.0
2017-Mar-23 16:00N 48°48' W 068°12'1716.9 290 / 151026.4 -11.8-20.0
2017-Mar-23 15:00N 48°36' W 068°30'6 6.0 280 / 121027.1 -12.7-19.5
2017-Mar-23 14:00N 48°30' W 068°30'7 7.2 310 / 141027.8 -12.6-18.4
2017-Mar-23 13:00N 48°36' W 068°36'6 6.0 340 / 141027.7 -12.0-20.1
2017-Mar-23 12:00N 48°42' W 068°36'4 4.0 350 / 201027.0 -14.1-20.4
2017-Mar-23 11:00N 48°42' W 068°30'10 5.0 350 / 231026.0 -14.4-20.1
2017-Mar-23 09:00N 48°48' W 068°18'7 7.2 350 / 221024.6 -14.1-20.2
2017-Mar-23 08:00N 48°54' W 068°12'4 3.9 350 / 221024.0 -13.9-20.7
2017-Mar-23 07:00N 48°54' W 068°06'4 3.9 360 / 211023.8 -13.7-20.9
2017-Mar-23 06:00N 48°54' W 068°00'4 3.9 350 / 231023.4 -13.1-20.6
2017-Mar-23 05:00N 48°54' W 067°54'6 6.0 360 / 211022.8 -12.6-20.5
2017-Mar-23 04:00N 49°00' W 067°54'4 3.9 350 / 241022.2 -12.1-20.2
2017-Mar-23 03:00N 49°00' W 067°48'10 9.9 340 / 221021.3 -11.5-20.5
2017-Mar-23 02:00N 49°06' W 067°36'7 7.2 350 / 261020.8 -10.7-21.4
2017-Mar-23 01:00N 49°12' W 067°30'1313.2 360 / 261019.9 -10.6-22.2
2017-Mar-23 00:00N 49°18' W 067°12'1211.7 340 / 261017.3 -9.5-20.7
2017-Mar-22 23:00N 49°18' W 066°54'1716.7 340 / 211016.1 -8.1-18.5
2017-Mar-22 22:00N 49°24' W 066°30'1211.7 340 / 241014.5 -7.8-17.3
2017-Mar-22 21:00N 49°24' W 066°12'2412.1 350 / 221013.4 -8.4-11.8
2017-Mar-22 19:00N 49°30' W 065°36'1313.2 350 / 261010.9 -7.2-8.6
2017-Mar-22 18:00N 49°24' W 065°18'1615.6 010 / 231010.3 -6.3-11.0
2017-Mar-22 17:00N 49°24' W 064°54'1211.7 060 / 221008.8 -4.2-9.3
2017-Mar-22 16:00N 49°24' W 064°36'1615.6 080 / 181009.2 -2.8-8.2
2017-Mar-22 15:00N 49°24' W 064°12'1313.2 090 / 121009.7 -3.6-9.8
2017-Mar-22 14:00N 49°18' W 063°54'1716.8 090 / 141009.0 -3.9-10.1
2017-Mar-22 13:00N 49°12' W 063°30'1716.8 090 / 111008.6 -3.8-9.9
2017-Mar-22 12:00N 49°00' W 063°12'1313.3 080 / 191008.1 -4.0-10.4
2017-Mar-22 11:00N 48°54' W 062°54'2713.3 070 / 171007.5 -3.8-10.1
2017-Mar-22 09:00N 48°42' W 062°18'1313.3 040 / 181006.2 -3.0-9.1
2017-Mar-22 08:00N 48°36' W 062°00'1716.9 030 / 211005.3 -2.6-8.7
2017-Mar-22 07:00N 48°24' W 061°42'1010.0 010 / 201005.0 -2.0-8.9
2017-Mar-22 06:00N 48°18' W 061°30'1313.4 350 / 231003.7 -1.4-8.0
2017-Mar-22 05:00N 48°12' W 061°12'8 8.0 350 / 251002.4 -0.4-5.8
2017-Mar-22 04:00N 48°12' W 061°00'1010.0 340 / 221001.3 -0.0-4.1
2017-Mar-22 03:00N 48°06' W 060°48'1414.4 320 / 91000.3 -0.3-2.8
2017-Mar-22 02:00N 47°54' W 060°36'7 7.2 300 / 201000.3 -0.6-2.3
2017-Mar-22 01:00N 47°48' W 060°30'1212.0 290 / 161000.5 -1.0-1.2
2017-Mar-22 00:00N 47°36' W 060°30'1312.7 300 / 161000.1 -1.6-1.9
2017-Mar-21 23:00N 47°24' W 060°24'7 7.2 310 / 21999.1 -2.0-3.2
2017-Mar-21 22:00N 47°18' W 060°18'1212.0 320 / 20998.5 -2.1-2.8
2017-Mar-21 21:00N 47°06' W 060°18'1312.7 320 / 21997.2 -2.0-2.3
2017-Mar-21 20:00N 46°54' W 060°12'1212.0 330 / 27996.0 -2.0-2.2
2017-Mar-21 19:00N 46°42' W 060°12'2412.0 330 / 23995.5 -1.8-2.0
2017-Mar-21 17:00N 46°18' W 060°12'1212.0 180 / 11995.5 -1.1-1.5
2017-Mar-21 16:00N 46°06' W 060°12'0 0.0 100 / 2996.9 -0.8-1.1
2017-Mar-21 15:00N 46°06' W 060°12'0 0.0 340 / 1997.6 -1.2-1.4
2017-Mar-21 14:00N 46°06' W 060°12'0 0.0 350 / 2998.2 -1.2-1.4
2017-Mar-21 13:00N 46°06' W 060°12'0 0.0 350 / 2998.7 -1.4-1.6
2017-Mar-21 12:00N 46°06' W 060°12'0 0.0 350 / 2999.0 -1.8-1.9
2017-Mar-21 11:00N 46°06' W 060°12'0 0.0 350 / 21000.0 -1.5-1.7
2017-Mar-21 10:00N 46°06' W 060°12'0 0.0 350 / 21000.8 -1.3-1.5
2017-Mar-21 09:00N 46°06' W 060°12'0 0.0 350 / 21001.0 -1.5-1.7
2017-Mar-21 08:00N 46°06' W 060°12'0 0.0 360 / 31001.8 -1.6-1.7
2017-Mar-21 07:00N 46°06' W 060°12'0 0.0 360 / 41002.6 -1.9-2.1
2017-Mar-21 06:00N 46°06' W 060°12'0 0.0 360 / 51004.2 -1.8-2.0
2017-Mar-21 05:00N 46°06' W 060°12'0 0.0 360 / 61005.4 -1.7-1.8
2017-Mar-21 04:00N 46°06' W 060°12'0 0.0 360 / 71006.5 -1.6-1.7
2017-Mar-21 03:00N 46°06' W 060°12'0 0.0 360 / 91007.3 -1.4-1.5
2017-Mar-21 02:00N 46°06' W 060°12'0 0.0 360 / 91008.5 -1.0-1.2
2017-Mar-21 01:00N 46°06' W 060°12'0 0.0 360 / 101009.2 -0.8-0.9
2017-Mar-21 00:00N 46°06' W 060°12'0 0.0 010 / 91010.1 -0.8-1.0
2017-Mar-20 23:00N 46°06' W 060°12'0 0.0 010 / 61010.3 -0.7-0.9
2017-Mar-20 22:00N 46°06' W 060°12'0 0.0 010 / 81011.0 -0.6-0.8
2017-Mar-20 21:00N 46°06' W 060°12'0 0.0 020 / 81011.7 -0.4-0.6
2017-Mar-20 20:00N 46°06' W 060°12'0 0.0 030 / 71012.5 -0.2-0.4
2017-Mar-20 19:00N 46°06' W 060°12'0 0.0 040 / 71013.0 -0.1-0.3
2017-Mar-20 18:00N 46°06' W 060°12'0 0.0 030 / 101013.4 -0.2-0.4
2017-Mar-20 17:00N 46°06' W 060°12'0 0.0 030 / 101014.5 -0.5-0.6
2017-Mar-20 16:00N 46°06' W 060°12'0 0.0 030 / 81015.4 -0.6-0.7
2017-Mar-20 15:00N 46°06' W 060°12'0 0.0 030 / 91016.3 -0.8-1.0
2017-Mar-20 14:00N 46°06' W 060°12'0 0.0 030 / 81017.2 -0.9-1.0
2017-Mar-20 13:00N 46°06' W 060°12'0 0.0 030 / 81018.2 -1.1-1.2
2017-Mar-20 12:00N 46°06' W 060°12'0 0.0 040 / 81018.4 -1.1-1.3
2017-Mar-20 11:00N 46°06' W 060°12'0 0.0 040 / 91018.9 -1.2-1.3
2017-Mar-20 10:00N 46°06' W 060°12'0 0.0 050 / 91019.0 -1.4-1.5
2017-Mar-20 09:00N 46°06' W 060°12'0 0.0 050 / 61019.3 -1.6-1.7
2017-Mar-20 08:00N 46°06' W 060°12'0 0.0 050 / 61020.5 -2.1-2.3
2017-Mar-20 07:00N 46°06' W 060°12'0 0.0 040 / 51021.7 -2.4-2.6
2017-Mar-20 04:00N 46°06' W 060°12'0 0.0 060 / 41024.9 -3.0-3.1
2017-Mar-20 03:00N 46°06' W 060°12'0 0.0 040 / 31026.5 -3.0-3.2
2017-Mar-20 02:00N 46°06' W 060°12'0 0.0 090 / 51027.1 -2.0-3.5
2017-Mar-20 01:00N 46°06' W 060°12'0 0.0 100 / 41027.3 -2.0-3.5
2017-Mar-20 00:00N 46°06' W 060°12'0 0.0 100 / 41027.6 -1.8-3.9
2017-Mar-19 23:00N 46°06' W 060°12'0 0.0 160 / 51028.4 -1.5-4.0
2017-Mar-19 22:00N 46°06' W 060°12'0 0.0 170 / 71028.7 -1.4-4.4
2017-Mar-19 21:00N 46°06' W 060°12'0 0.0 160 / 71029.2 -0.9-5.0
2017-Mar-19 20:00N 46°06' W 060°12'0 0.0 170 / 71029.2 0.4-5.5
2017-Mar-19 19:00N 46°06' W 060°12'0 0.0 150 / 81029.8 1.4-5.6
2017-Mar-19 18:00N 46°06' W 060°12'1212.0 350 / 71030.1 0.6-5.2
2017-Mar-19 17:00N 46°18' W 060°12'1212.4 070 / 91031.0 -0.9-5.3
2017-Mar-19 16:00N 46°18' W 059°54'1716.6 110 / 81031.8 -2.4-5.8
2017-Mar-19 15:00N 46°18' W 059°30'1212.4 090 / 61032.4 -2.5-5.4
2017-Mar-19 14:00N 46°18' W 059°12'1212.4 050 / 51032.2 -2.4-4.6
2017-Mar-19 13:00N 46°18' W 058°54'1716.6 040 / 41032.8 -2.3-5.0
2017-Mar-19 12:00N 46°18' W 058°30'1413.8 340 / 81031.6 -2.0-4.3
2017-Mar-19 11:00N 46°24' W 058°12'1212.4 340 / 111030.5 -2.2-4.5
2017-Mar-19 10:00N 46°24' W 057°54'1716.6 330 / 121030.0 -2.0-4.0
2017-Mar-19 09:00N 46°24' W 057°30'1212.4 330 / 131029.6 -1.8-5.4
2017-Mar-19 08:00N 46°24' W 057°12'1212.4 350 / 51029.0 -2.0-5.4
2017-Mar-19 07:00N 46°24' W 056°54'1716.6 330 / 71028.3 -1.6-4.2
2017-Mar-19 06:00N 46°24' W 056°30'1212.4 330 / 81027.8 -1.2-3.5
2017-Mar-19 05:00N 46°24' W 056°12'1212.4 320 / 141027.1 -0.6-3.4
2017-Mar-19 04:00N 46°24' W 055°54'1716.6 350 / 41027.0 -0.8-3.7
2017-Mar-19 03:00N 46°24' W 055°30'1413.8 350 / 41026.3 -1.5-4.0
2017-Mar-19 02:00N 46°30' W 055°12'1212.4 340 / 101025.8 -1.6-3.8
2017-Mar-19 01:00N 46°30' W 054°54'1716.5 340 / 121025.1 -1.0-3.7
2017-Mar-19 00:00N 46°30' W 054°30'1212.4 350 / 111024.0 -0.7-4.4
2017-Mar-18 23:00N 46°30' W 054°12'1212.4 350 / 141022.9 -0.8-3.4
2017-Mar-18 22:00N 46°30' W 053°54'6 6.0 360 / 121022.3 -1.0-1.2
2017-Mar-18 21:00N 46°24' W 053°54'1717.2 340 / 131021.5 -0.6-1.5
2017-Mar-18 20:00N 46°36' W 054°12'1312.7 340 / 161020.8 -0.5-2.2
2017-Mar-18 19:00N 46°48' W 054°18'1514.5 010 / 131020.2 -0.6-2.1
2017-Mar-18 18:00N 47°00' W 054°30'1312.7 010 / 111019.5 -1.0-2.3
2017-Mar-18 17:00N 47°12' W 054°36'1212.0 030 / 111019.0 -1.2-3.2
2017-Mar-18 16:00N 47°24' W 054°36'1212.0 060 / 81018.9 -1.0-3.4
2017-Mar-18 15:00N 47°12' W 054°36'1010.1 040 / 141017.9 -1.3-2.9
2017-Mar-18 14:00N 47°06' W 054°24'1514.5 360 / 111017.7 -1.2-2.1
2017-Mar-18 13:00N 47°18' W 054°12'1414.5 360 / 71017.1 -1.3-2.6
2017-Mar-18 12:00N 47°30' W 054°00'0 0.0 350 / 101016.0 -1.4-2.4
2017-Mar-18 11:00N 47°30' W 054°00'7 7.2 320 / 71015.0 -2.0-2.6
2017-Mar-18 10:00N 47°24' W 054°06'1312.7 270 / 91014.4 -1.7-2.4
2017-Mar-18 09:00N 47°12' W 054°12'1514.5 290 / 101013.8 -1.4-2.5
2017-Mar-18 08:00N 47°00' W 054°24'7 7.3 290 / 121013.1 -1.5-2.1
2017-Mar-18 07:00N 46°54' W 054°30'1312.7 280 / 141012.5 -1.5-2.3
2017-Mar-18 06:00N 46°42' W 054°24'1010.2 300 / 111011.9 -1.5-1.7
2017-Mar-18 05:00N 46°36' W 054°12'1413.8 220 / 101012.1 -1.2-1.3
2017-Mar-18 04:00N 46°30' W 053°54'8 8.3 200 / 111012.3 -1.1-1.2
2017-Mar-18 03:00N 46°30' W 053°42'2110.3 190 / 61012.6 -1.1-1.2
2017-Mar-18 01:00N 46°30' W 053°12'8 8.3 190 / 51012.5 -1.1-1.2
2017-Mar-18 00:00N 46°30' W 053°00'1010.2 180 / 31012.7 -1.0-1.1
2017-Mar-17 23:00N 46°36' W 052°48'6 6.0 280 / 11012.5 -0.8-0.9
2017-Mar-17 22:00N 46°42' W 052°48'1312.7 160 / 61012.0 -0.2-0.8
2017-Mar-17 21:00N 46°54' W 052°42'6 6.0 180 / 81011.8 0.2-0.6
2017-Mar-17 20:00N 47°00' W 052°42'1312.7 170 / 61011.3 -0.2-0.6
2017-Mar-17 19:00N 47°12' W 052°36'716.0 210 / 31011.1 0.7-2.2
2017-Mar-17 18:32N 47°19' W 052°35'5 8.7
2017-Mar-17 18:00N 47°24' W 052°36'919.2 240 / 61010.8 2.3-2.9
2017-Mar-17 17:32N 47°33' W 052°34'611.9
2017-Mar-17 17:00N 47°36' W 052°42'0 0.0 250 / 101011.4 3.5-6.5
2017-Mar-17 16:00N 47°36' W 052°42'0 0.0 250 / 61012.0 2.8-5.2
2017-Mar-17 15:00N 47°36' W 052°42'0 0.0 270 / 71012.0 2.4-3.9
2017-Mar-17 14:00N 47°36' W 052°42'2 3.8 230 / 71012.0 1.9-3.8
2017-Mar-17 13:23N 47°34' W 052°42'2 6.0
2017-Mar-17 13:00N 47°36' W 052°42'2 5.0 220 / 91012.4 0.9-2.9
2017-Mar-17 12:32N 47°34' W 052°42'2 4.3
2017-Mar-17 12:00N 47°36' W 052°42'2 4.1 230 / 61012.9 0.1-2.7
2017-Mar-17 11:23N 47°34' W 052°42'2 6.4
2017-Mar-17 11:00N 47°36' W 052°42'2 4.9 230 / 41012.2 -1.1-3.0
2017-Mar-17 10:29N 47°34' W 052°42'2 5.1
2017-Mar-17 10:00N 47°36' W 052°42'2 4.1 240 / 31012.2 -1.8-3.2
2017-Mar-17 09:23N 47°34' W 052°42'0 0.0
2017-Mar-17 08:29N 47°34' W 052°42'2 5.1
2017-Mar-17 08:00N 47°36' W 052°42'2 4.9 220 / 51011.6 -1.2-3.2
2017-Mar-17 07:29N 47°34' W 052°42'2 5.1
2017-Mar-17 07:00N 47°36' W 052°42'2 5.4 210 / 11010.8 -1.2-3.4
2017-Mar-17 06:32N 47°34' W 052°42'2 4.6
2017-Mar-17 06:00N 47°36' W 052°42'2 5.4 230 / 31010.9 -0.7-3.4
2017-Mar-17 05:32N 47°34' W 052°42'0 0.0
2017-Mar-17 04:29N 47°34' W 052°42'2 5.1
2017-Mar-17 04:00N 47°36' W 052°42'2 4.9 220 / 51010.5 -0.3-2.7
2017-Mar-17 03:29N 47°34' W 052°42'2 5.1
2017-Mar-17 03:00N 47°36' W 052°42'2 4.9 220 / 61010.3 0.1-2.4
2017-Mar-17 02:29N 47°34' W 052°42'2 5.1
2017-Mar-17 02:00N 47°36' W 052°42'2 4.5 220 / 71009.6 0.5-2.6
2017-Mar-17 01:26N 47°34' W 052°42'2 5.7
2017-Mar-17 01:00N 47°36' W 052°42'2 5.4 220 / 81009.3 0.7-2.3
2017-Mar-17 00:32N 47°34' W 052°42'2 4.6
2017-Mar-17 00:00N 47°36' W 052°42'0 0.0 230 / 71008.4 1.0-2.0
2017-Mar-16 23:00N 47°36' W 052°42'2 4.9 230 / 91007.5 1.6-2.0
2017-Mar-16 22:29N 47°34' W 052°42'2 5.1
2017-Mar-16 22:00N 47°36' W 052°42'2 4.5 220 / 131007.0 2.2-1.1
2017-Mar-16 21:26N 47°34' W 052°42'2 5.7
2017-Mar-16 21:00N 47°36' W 052°42'2 4.5 240 / 101006.8 2.8-0.7
2017-Mar-16 20:26N 47°34' W 052°42'2 5.7
2017-Mar-16 20:00N 47°36' W 052°42'2 4.5 230 / 121006.3 3.4-0.7
2017-Mar-16 19:26N 47°34' W 052°42'2 5.7
2017-Mar-16 19:00N 47°36' W 052°42'2 4.9 240 / 101005.7 4.3 0.2
2017-Mar-16 18:29N 47°34' W 052°42'2 5.1
2017-Mar-16 18:00N 47°36' W 052°42'2 5.4 230 / 81004.4 6.0 0.9
2017-Mar-16 17:32N 47°34' W 052°42'2 4.6
2017-Mar-16 17:00N 47°36' W 052°42'2 4.9 240 / 81004.4 5.4 0.5
2017-Mar-16 16:29N 47°34' W 052°42'2 5.1
2017-Mar-16 16:00N 47°36' W 052°42'2 4.9 250 / 111004.2 4.9-0.0
2017-Mar-16 15:29N 47°34' W 052°42'2 5.1
2017-Mar-16 15:00N 47°36' W 052°42'2 4.9 240 / 81003.8 5.1 0.5
2017-Mar-16 14:29N 47°34' W 052°42'2 5.1
2017-Mar-16 14:00N 47°36' W 052°42'2 4.9 250 / 121003.4 5.6 1.4
2017-Mar-16 13:29N 47°34' W 052°42'2 5.1
2017-Mar-16 13:00N 47°36' W 052°42'0 0.0 240 / 101002.2 5.8 3.0
2017-Mar-16 12:00N 47°36' W 052°42'0 0.0 230 / 111001.4 5.7 3.9
2017-Mar-16 11:00N 47°36' W 052°42'2 5.4 230 / 10999.5 6.7 6.3
2017-Mar-16 10:32N 47°34' W 052°42'2 4.6
2017-Mar-16 10:00N 47°36' W 052°42'2 4.9 230 / 10998.6 8.7 8.6
2017-Mar-16 09:29N 47°34' W 052°42'2 5.1
2017-Mar-16 09:00N 47°36' W 052°42'2 4.9 220 / 11998.0 9.7 9.5
2017-Mar-16 08:29N 47°34' W 052°42'2 5.1
2017-Mar-16 08:00N 47°36' W 052°42'2 1.7 220 / 15997.5 10.210.1
2017-Mar-16 06:32N 47°34' W 052°42'2 4.6
2017-Mar-16 06:00N 47°36' W 052°42'2 5.4 220 / 14998.9 9.7 9.5
2017-Mar-16 05:32N 47°34' W 052°42'2 4.6
2017-Mar-16 05:00N 47°36' W 052°42'2 5.4 200 / 9999.2 10.1 9.9
2017-Mar-16 04:32N 47°34' W 052°42'2 4.6
2017-Mar-16 04:00N 47°36' W 052°42'2 4.9 210 / 91001.4 8.8 8.7
2017-Mar-16 03:29N 47°34' W 052°42'2 5.1
2017-Mar-16 03:00N 47°36' W 052°42'2 4.9 200 / 11002.5 7.0 6.9
2017-Mar-16 02:29N 47°34' W 052°42'2 5.1
2017-Mar-16 02:00N 47°36' W 052°42'2 4.9 260 / 11005.0 6.3 6.2
2017-Mar-16 01:29N 47°34' W 052°42'2 5.1
2017-Mar-16 01:00N 47°36' W 052°42'2 4.9 240 / 11006.0 6.2 6.1
2017-Mar-16 00:29N 47°34' W 052°42'2 5.1
2017-Mar-16 00:00N 47°36' W 052°42'2 5.4 100 / 11005.4 5.4 5.3
2017-Mar-15 23:32N 47°34' W 052°42'2 4.6
2017-Mar-15 23:00N 47°36' W 052°42'2 5.4 200 / 11005.3 5.6 5.4
2017-Mar-15 22:32N 47°34' W 052°42'2 4.6
2017-Mar-15 22:00N 47°36' W 052°42'2 3.8 220 / 121005.3 7.4 7.3
2017-Mar-15 21:20N 47°34' W 052°42'2 7.3
2017-Mar-15 21:00N 47°36' W 052°42'2 5.4 220 / 141005.2 8.4 8.3
2017-Mar-15 20:32N 47°34' W 052°42'2 4.6
2017-Mar-15 20:00N 47°36' W 052°42'2 5.4 220 / 91006.2 7.0 6.9
2017-Mar-15 19:32N 47°34' W 052°42'2 4.6
2017-Mar-15 19:00N 47°36' W 052°42'2 4.9 230 / 111006.6 4.8 4.6
2017-Mar-15 18:29N 47°34' W 052°42'2 5.1
2017-Mar-15 18:00N 47°36' W 052°42'2 4.9 240 / 61008.1 2.4 2.3
2017-Mar-15 17:29N 47°34' W 052°42'2 5.1
2017-Mar-15 17:00N 47°36' W 052°42'2 5.4 220 / 41010.1 1.5 1.3
2017-Mar-15 16:32N 47°34' W 052°42'2 4.6
2017-Mar-15 16:00N 47°36' W 052°42'2 4.9 190 / 61013.0 0.8 0.6
2017-Mar-15 15:29N 47°34' W 052°42'2 5.1
2017-Mar-15 15:00N 47°36' W 052°42'2 3.8 210 / 61014.8 0.1-0.1
2017-Mar-15 14:20N 47°34' W 052°42'2 7.3
2017-Mar-15 14:00N 47°36' W 052°42'2 4.9 210 / 21018.0 -0.4-0.6
2017-Mar-15 13:29N 47°34' W 052°42'2 5.1
2017-Mar-15 13:00N 47°36' W 052°42'2 4.9 140 / 41020.6 -1.0-1.3
2017-Mar-15 12:29N 47°34' W 052°42'2 5.1
2017-Mar-15 12:00N 47°36' W 052°42'2 4.9 230 / 11022.9 -0.7-1.5
2017-Mar-15 11:29N 47°34' W 052°42'2 5.1
2017-Mar-15 11:00N 47°36' W 052°42'2 4.9 300 / 11025.3 -1.3-1.5
2017-Mar-15 10:29N 47°34' W 052°42'2 5.1
2017-Mar-15 10:00N 47°36' W 052°42'2 4.5 110 / 31025.4 -1.7-1.9
2017-Mar-15 09:26N 47°34' W 052°42'2 5.7
2017-Mar-15 09:00N 47°36' W 052°42'2 5.4 210 / 31028.1 -1.5-2.1
2017-Mar-15 08:32N 47°34' W 052°42'2 4.6
2017-Mar-15 08:00N 47°36' W 052°42'2 4.9 100 / 11029.3 -1.4-2.6
2017-Mar-15 07:29N 47°34' W 052°42'2 5.1
2017-Mar-15 07:00N 47°36' W 052°42'2 4.9 220 / 21031.1 -1.7-2.6
2017-Mar-15 06:29N 47°34' W 052°42'2 5.1
2017-Mar-15 06:00N 47°36' W 052°42'2 4.9 180 / 11032.1 -4.1-5.3
2017-Mar-15 05:29N 47°34' W 052°42'2 5.1
2017-Mar-15 05:00N 47°36' W 052°42'2 4.9 1032.6 -4.6-6.1
2017-Mar-15 04:29N 47°34' W 052°42'2 5.1
2017-Mar-15 04:00N 47°36' W 052°42'2 4.9 210 / 21033.3 -4.3-6.3
2017-Mar-15 03:29N 47°34' W 052°42'2 5.1
2017-Mar-15 03:00N 47°36' W 052°42'2 4.9 220 / 41033.1 -3.7-6.4
2017-Mar-15 02:29N 47°34' W 052°42'2 5.1
2017-Mar-15 02:00N 47°36' W 052°42'2 4.9 220 / 51033.7 -2.9-6.4
2017-Mar-15 01:29N 47°34' W 052°42'2 5.1
2017-Mar-15 01:00N 47°36' W 052°42'2 4.9 210 / 31034.7 -2.0-6.3
2017-Mar-15 00:29N 47°34' W 052°42'2 5.1
2017-Mar-15 00:00N 47°36' W 052°42'2 4.9 220 / 61035.0 -1.4-6.2
2017-Mar-14 23:29N 47°34' W 052°42'2 5.1
2017-Mar-14 23:00N 47°36' W 052°42'2 4.9 240 / 51034.4 -0.7-5.4
2017-Mar-14 22:29N 47°34' W 052°42'2 5.1
2017-Mar-14 22:00N 47°36' W 052°42'2 4.9 240 / 61034.2 -0.0-5.8
2017-Mar-14 21:29N 47°34' W 052°42'2 5.1
2017-Mar-14 21:00N 47°36' W 052°42'2 4.9 250 / 61033.4 0.7-6.8
2017-Mar-14 20:29N 47°34' W 052°42'2 5.1
2017-Mar-14 20:00N 47°36' W 052°42'2 4.9 260 / 81033.4 2.0-7.1
2017-Mar-14 19:29N 47°34' W 052°42'2 5.1
2017-Mar-14 19:00N 47°36' W 052°42'2 4.9 250 / 81033.5 2.5-8.1
2017-Mar-14 18:29N 47°34' W 052°42'2 5.1
2017-Mar-14 18:00N 47°36' W 052°42'2 4.9 240 / 71033.5 2.7-8.5
2017-Mar-14 17:29N 47°34' W 052°42'2 5.1
2017-Mar-14 17:00N 47°36' W 052°42'   250 / 71033.1 2.1-7.8
Track history (hours):
 
Tides and Currents Weather Stations Pressure Air Temp Water Temp Dewpoint Dewpoint Depression Visibility Wind Speed Wind Dir Waves Ship Positions

Edward Cornwallis

Last reported at 2017-Mar-24 17:00 UTC. Time now 2017-Mar-24 18:10 UTC.
Position N 48°42' W 068°24'.

Length 83 m; draft 6 m.

Type: SAR. MMSI: 316020000.

Wind from 210 at 22 knots

Barometer 1017.9 mb
Air temperature -1.0 ° C
Dewpoint -7.3 ° C

Date/timePositionNaut miles runAvg speedWind from/ knotsBaromVisibWave heightAir tempDewpointWater temp
2017-Mar-24 17:00N 48°42' W 068°24'1211.9 210 / 221017.9 -1.0-7.3
2017-Mar-24 16:00N 48°42' W 068°06'1313.3 210 / 191019.7 -1.0-10.2
2017-Mar-24 15:00N 48°48' W 067°48'8 2.6 170 / 91022.2 -3.5-14.4
2017-Mar-24 12:00N 48°48' W 067°36'0 0.0 190 / 71026.2 -9.8-17.6
2017-Mar-24 06:00N 48°48' W 067°36'0 0.0 320 / 71028.1 -6.8-17.2
2017-Mar-24 00:00N 48°48' W 067°36'0 0.0 320 / 161026.8 -5.5-16.8
2017-Mar-23 19:00N 48°48' W 067°36'6 6.0 300 / 161025.1 -8.4-16.3
2017-Mar-23 18:00N 48°54' W 067°36'1211.8 270 / 191025.0 -8.9-17.3
2017-Mar-23 17:00N 48°54' W 067°54'1313.3 270 / 171025.6 -10.9-19.0
2017-Mar-23 16:00N 48°48' W 068°12'1716.9 290 / 151026.4 -11.8-20.0
2017-Mar-23 15:00N 48°36' W 068°30'6 6.0 280 / 121027.1 -12.7-19.5
2017-Mar-23 14:00N 48°30' W 068°30'7 7.2 310 / 141027.8 -12.6-18.4
2017-Mar-23 13:00N 48°36' W 068°36'6 6.0 340 / 141027.7 -12.0-20.1
2017-Mar-23 12:00N 48°42' W 068°36'4 4.0 350 / 201027.0 -14.1-20.4
2017-Mar-23 11:00N 48°42' W 068°30'10 5.0 350 / 231026.0 -14.4-20.1
2017-Mar-23 09:00N 48°48' W 068°18'7 7.2 350 / 221024.6 -14.1-20.2
2017-Mar-23 08:00N 48°54' W 068°12'4 3.9 350 / 221024.0 -13.9-20.7
2017-Mar-23 07:00N 48°54' W 068°06'4 3.9 360 / 211023.8 -13.7-20.9
2017-Mar-23 06:00N 48°54' W 068°00'4 3.9 350 / 231023.4 -13.1-20.6
2017-Mar-23 05:00N 48°54' W 067°54'6 6.0 360 / 211022.8 -12.6-20.5
2017-Mar-23 04:00N 49°00' W 067°54'4 3.9 350 / 241022.2 -12.1-20.2
2017-Mar-23 03:00N 49°00' W 067°48'10 9.9 340 / 221021.3 -11.5-20.5
2017-Mar-23 02:00N 49°06' W 067°36'7 7.2 350 / 261020.8 -10.7-21.4
2017-Mar-23 01:00N 49°12' W 067°30'1313.2 360 / 261019.9 -10.6-22.2
2017-Mar-23 00:00N 49°18' W 067°12'1211.7 340 / 261017.3 -9.5-20.7
2017-Mar-22 23:00N 49°18' W 066°54'1716.7 340 / 211016.1 -8.1-18.5
2017-Mar-22 22:00N 49°24' W 066°30'1211.7 340 / 241014.5 -7.8-17.3
2017-Mar-22 21:00N 49°24' W 066°12'2412.1 350 / 221013.4 -8.4-11.8
2017-Mar-22 19:00N 49°30' W 065°36'1313.2 350 / 261010.9 -7.2-8.6
2017-Mar-22 18:00N 49°24' W 065°18'1615.6 010 / 231010.3 -6.3-11.0
2017-Mar-22 17:00N 49°24' W 064°54'1211.7 060 / 221008.8 -4.2-9.3
2017-Mar-22 16:00N 49°24' W 064°36'1615.6 080 / 181009.2 -2.8-8.2
2017-Mar-22 15:00N 49°24' W 064°12'1313.2 090 / 121009.7 -3.6-9.8
2017-Mar-22 14:00N 49°18' W 063°54'1716.8 090 / 141009.0 -3.9-10.1
2017-Mar-22 13:00N 49°12' W 063°30'1716.8 090 / 111008.6 -3.8-9.9
2017-Mar-22 12:00N 49°00' W 063°12'1313.3 080 / 191008.1 -4.0-10.4
2017-Mar-22 11:00N 48°54' W 062°54'2713.3 070 / 171007.5 -3.8-10.1
2017-Mar-22 09:00N 48°42' W 062°18'1313.3 040 / 181006.2 -3.0-9.1
2017-Mar-22 08:00N 48°36' W 062°00'1716.9 030 / 211005.3 -2.6-8.7
2017-Mar-22 07:00N 48°24' W 061°42'1010.0 010 / 201005.0 -2.0-8.9
2017-Mar-22 06:00N 48°18' W 061°30'1313.4 350 / 231003.7 -1.4-8.0
2017-Mar-22 05:00N 48°12' W 061°12'8 8.0 350 / 251002.4 -0.4-5.8
2017-Mar-22 04:00N 48°12' W 061°00'1010.0 340 / 221001.3 -0.0-4.1
2017-Mar-22 03:00N 48°06' W 060°48'1414.4 320 / 91000.3 -0.3-2.8
2017-Mar-22 02:00N 47°54' W 060°36'7 7.2 300 / 201000.3 -0.6-2.3
2017-Mar-22 01:00N 47°48' W 060°30'1212.0 290 / 161000.5 -1.0-1.2
2017-Mar-22 00:00N 47°36' W 060°30'1312.7 300 / 161000.1 -1.6-1.9
2017-Mar-21 23:00N 47°24' W 060°24'7 7.2 310 / 21999.1 -2.0-3.2
2017-Mar-21 22:00N 47°18' W 060°18'1212.0 320 / 20998.5 -2.1-2.8
2017-Mar-21 21:00N 47°06' W 060°18'1312.7 320 / 21997.2 -2.0-2.3
2017-Mar-21 20:00N 46°54' W 060°12'1212.0 330 / 27996.0 -2.0-2.2
2017-Mar-21 19:00N 46°42' W 060°12'2412.0 330 / 23995.5 -1.8-2.0
2017-Mar-21 17:00N 46°18' W 060°12'1212.0 180 / 11995.5 -1.1-1.5
2017-Mar-21 16:00N 46°06' W 060°12'0 0.0 100 / 2996.9 -0.8-1.1
2017-Mar-21 15:00N 46°06' W 060°12'0 0.0 340 / 1997.6 -1.2-1.4
2017-Mar-21 14:00N 46°06' W 060°12'0 0.0 350 / 2998.2 -1.2-1.4
2017-Mar-21 13:00N 46°06' W 060°12'0 0.0 350 / 2998.7 -1.4-1.6
2017-Mar-21 12:00N 46°06' W 060°12'0 0.0 350 / 2999.0 -1.8-1.9
2017-Mar-21 11:00N 46°06' W 060°12'0 0.0 350 / 21000.0 -1.5-1.7
2017-Mar-21 10:00N 46°06' W 060°12'0 0.0 350 / 21000.8 -1.3-1.5
2017-Mar-21 09:00N 46°06' W 060°12'0 0.0 350 / 21001.0 -1.5-1.7
2017-Mar-21 08:00N 46°06' W 060°12'0 0.0 360 / 31001.8 -1.6-1.7
2017-Mar-21 07:00N 46°06' W 060°12'0 0.0 360 / 41002.6 -1.9-2.1
2017-Mar-21 06:00N 46°06' W 060°12'0 0.0 360 / 51004.2 -1.8-2.0
2017-Mar-21 05:00N 46°06' W 060°12'0 0.0 360 / 61005.4 -1.7-1.8
2017-Mar-21 04:00N 46°06' W 060°12'0 0.0 360 / 71006.5 -1.6-1.7
2017-Mar-21 03:00N 46°06' W 060°12'0 0.0 360 / 91007.3 -1.4-1.5
2017-Mar-21 02:00N 46°06' W 060°12'0 0.0 360 / 91008.5 -1.0-1.2
2017-Mar-21 01:00N 46°06' W 060°12'0 0.0 360 / 101009.2 -0.8-0.9
2017-Mar-21 00:00N 46°06' W 060°12'0 0.0 010 / 91010.1 -0.8-1.0
2017-Mar-20 23:00N 46°06' W 060°12'0 0.0 010 / 61010.3 -0.7-0.9
2017-Mar-20 22:00N 46°06' W 060°12'0 0.0 010 / 81011.0 -0.6-0.8
2017-Mar-20 21:00N 46°06' W 060°12'0 0.0 020 / 81011.7 -0.4-0.6
2017-Mar-20 20:00N 46°06' W 060°12'0 0.0 030 / 71012.5 -0.2-0.4
2017-Mar-20 19:00N 46°06' W 060°12'0 0.0 040 / 71013.0 -0.1-0.3
2017-Mar-20 18:00N 46°06' W 060°12'0 0.0 030 / 101013.4 -0.2-0.4
2017-Mar-20 17:00N 46°06' W 060°12'0 0.0 030 / 101014.5 -0.5-0.6
2017-Mar-20 16:00N 46°06' W 060°12'0 0.0 030 / 81015.4 -0.6-0.7
2017-Mar-20 15:00N 46°06' W 060°12'0 0.0 030 / 91016.3 -0.8-1.0
2017-Mar-20 14:00N 46°06' W 060°12'0 0.0 030 / 81017.2 -0.9-1.0
2017-Mar-20 13:00N 46°06' W 060°12'0 0.0 030 / 81018.2 -1.1-1.2
2017-Mar-20 12:00N 46°06' W 060°12'0 0.0 040 / 81018.4 -1.1-1.3
2017-Mar-20 11:00N 46°06' W 060°12'0 0.0 040 / 91018.9 -1.2-1.3
2017-Mar-20 10:00N 46°06' W 060°12'0 0.0 050 / 91019.0 -1.4-1.5
2017-Mar-20 09:00N 46°06' W 060°12'0 0.0 050 / 61019.3 -1.6-1.7
2017-Mar-20 08:00N 46°06' W 060°12'0 0.0 050 / 61020.5 -2.1-2.3
2017-Mar-20 07:00N 46°06' W 060°12'0 0.0 040 / 51021.7 -2.4-2.6
2017-Mar-20 04:00N 46°06' W 060°12'0 0.0 060 / 41024.9 -3.0-3.1
2017-Mar-20 03:00N 46°06' W 060°12'0 0.0 040 / 31026.5 -3.0-3.2
2017-Mar-20 02:00N 46°06' W 060°12'0 0.0 090 / 51027.1 -2.0-3.5
2017-Mar-20 01:00N 46°06' W 060°12'0 0.0 100 / 41027.3 -2.0-3.5
2017-Mar-20 00:00N 46°06' W 060°12'0 0.0 100 / 41027.6 -1.8-3.9
2017-Mar-19 23:00N 46°06' W 060°12'0 0.0 160 / 51028.4 -1.5-4.0
2017-Mar-19 22:00N 46°06' W 060°12'0 0.0 170 / 71028.7 -1.4-4.4
2017-Mar-19 21:00N 46°06' W 060°12'0 0.0 160 / 71029.2 -0.9-5.0
2017-Mar-19 20:00N 46°06' W 060°12'0 0.0 170 / 71029.2 0.4-5.5
2017-Mar-19 19:00N 46°06' W 060°12'0 0.0 150 / 81029.8 1.4-5.6
2017-Mar-19 18:00N 46°06' W 060°12'1212.0 350 / 71030.1 0.6-5.2
2017-Mar-19 17:00N 46°18' W 060°12'1212.4 070 / 91031.0 -0.9-5.3
2017-Mar-19 16:00N 46°18' W 059°54'1716.6 110 / 81031.8 -2.4-5.8
2017-Mar-19 15:00N 46°18' W 059°30'1212.4 090 / 61032.4 -2.5-5.4
2017-Mar-19 14:00N 46°18' W 059°12'1212.4 050 / 51032.2 -2.4-4.6
2017-Mar-19 13:00N 46°18' W 058°54'1716.6 040 / 41032.8 -2.3-5.0
2017-Mar-19 12:00N 46°18' W 058°30'1413.8 340 / 81031.6 -2.0-4.3
2017-Mar-19 11:00N 46°24' W 058°12'1212.4 340 / 111030.5 -2.2-4.5
2017-Mar-19 10:00N 46°24' W 057°54'1716.6 330 / 121030.0 -2.0-4.0
2017-Mar-19 09:00N 46°24' W 057°30'1212.4 330 / 131029.6 -1.8-5.4
2017-Mar-19 08:00N 46°24' W 057°12'1212.4 350 / 51029.0 -2.0-5.4
2017-Mar-19 07:00N 46°24' W 056°54'1716.6 330 / 71028.3 -1.6-4.2
2017-Mar-19 06:00N 46°24' W 056°30'1212.4 330 / 81027.8 -1.2-3.5
2017-Mar-19 05:00N 46°24' W 056°12'1212.4 320 / 141027.1 -0.6-3.4
2017-Mar-19 04:00N 46°24' W 055°54'1716.6 350 / 41027.0 -0.8-3.7
2017-Mar-19 03:00N 46°24' W 055°30'1413.8 350 / 41026.3 -1.5-4.0
2017-Mar-19 02:00N 46°30' W 055°12'1212.4 340 / 101025.8 -1.6-3.8
2017-Mar-19 01:00N 46°30' W 054°54'1716.5 340 / 121025.1 -1.0-3.7
2017-Mar-19 00:00N 46°30' W 054°30'1212.4 350 / 111024.0 -0.7-4.4
2017-Mar-18 23:00N 46°30' W 054°12'1212.4 350 / 141022.9 -0.8-3.4
2017-Mar-18 22:00N 46°30' W 053°54'6 6.0 360 / 121022.3 -1.0-1.2
2017-Mar-18 21:00N 46°24' W 053°54'1717.2 340 / 131021.5 -0.6-1.5
2017-Mar-18 20:00N 46°36' W 054°12'1312.7 340 / 161020.8 -0.5-2.2
2017-Mar-18 19:00N 46°48' W 054°18'1514.5 010 / 131020.2 -0.6-2.1
2017-Mar-18 18:00N 47°00' W 054°30'1312.7 010 / 111019.5 -1.0-2.3
2017-Mar-18 17:00N 47°12' W 054°36'1212.0 030 / 111019.0 -1.2-3.2
2017-Mar-18 16:00N 47°24' W 054°36'1212.0 060 / 81018.9 -1.0-3.4
2017-Mar-18 15:00N 47°12' W 054°36'1010.1 040 / 141017.9 -1.3-2.9
2017-Mar-18 14:00N 47°06' W 054°24'1514.5 360 / 111017.7 -1.2-2.1
2017-Mar-18 13:00N 47°18' W 054°12'1414.5 360 / 71017.1 -1.3-2.6
2017-Mar-18 12:00N 47°30' W 054°00'0 0.0 350 / 101016.0 -1.4-2.4
2017-Mar-18 11:00N 47°30' W 054°00'7 7.2 320 / 71015.0 -2.0-2.6
2017-Mar-18 10:00N 47°24' W 054°06'1312.7 270 / 91014.4 -1.7-2.4
2017-Mar-18 09:00N 47°12' W 054°12'1514.5 290 / 101013.8 -1.4-2.5
2017-Mar-18 08:00N 47°00' W 054°24'7 7.3 290 / 121013.1 -1.5-2.1
2017-Mar-18 07:00N 46°54' W 054°30'1312.7 280 / 141012.5 -1.5-2.3
2017-Mar-18 06:00N 46°42' W 054°24'1010.2 300 / 111011.9 -1.5-1.7
2017-Mar-18 05:00N 46°36' W 054°12'1413.8 220 / 101012.1 -1.2-1.3
2017-Mar-18 04:00N 46°30' W 053°54'8 8.3 200 / 111012.3 -1.1-1.2
2017-Mar-18 03:00N 46°30' W 053°42'2110.3 190 / 61012.6 -1.1-1.2
2017-Mar-18 01:00N 46°30' W 053°12'8 8.3 190 / 51012.5 -1.1-1.2
2017-Mar-18 00:00N 46°30' W 053°00'1010.2 180 / 31012.7 -1.0-1.1
2017-Mar-17 23:00N 46°36' W 052°48'6 6.0 280 / 11012.5 -0.8-0.9
2017-Mar-17 22:00N 46°42' W 052°48'1312.7 160 / 61012.0 -0.2-0.8
2017-Mar-17 21:00N 46°54' W 052°42'6 6.0 180 / 81011.8 0.2-0.6
2017-Mar-17 20:00N 47°00' W 052°42'1312.7 170 / 61011.3 -0.2-0.6
2017-Mar-17 19:00N 47°12' W 052°36'716.0 210 / 31011.1 0.7-2.2
2017-Mar-17 18:32N 47°19' W 052°35'5 8.7
2017-Mar-17 18:00N 47°24' W 052°36'919.2 240 / 61010.8 2.3-2.9
2017-Mar-17 17:32N 47°33' W 052°34'611.9
2017-Mar-17 17:00N 47°36' W 052°42'0 0.0 250 / 101011.4 3.5-6.5
2017-Mar-17 16:00N 47°36' W 052°42'0 0.0 250 / 61012.0 2.8-5.2
2017-Mar-17 15:00N 47°36' W 052°42'0 0.0 270 / 71012.0 2.4-3.9
2017-Mar-17 14:00N 47°36' W 052°42'2 3.8 230 / 71012.0 1.9-3.8
2017-Mar-17 13:23N 47°34' W 052°42'2 6.0
2017-Mar-17 13:00N 47°36' W 052°42'2 5.0 220 / 91012.4 0.9-2.9
2017-Mar-17 12:32N 47°34' W 052°42'2 4.3
2017-Mar-17 12:00N 47°36' W 052°42'2 4.1 230 / 61012.9 0.1-2.7
2017-Mar-17 11:23N 47°34' W 052°42'2 6.4
2017-Mar-17 11:00N 47°36' W 052°42'2 4.9 230 / 41012.2 -1.1-3.0
2017-Mar-17 10:29N 47°34' W 052°42'2 5.1
2017-Mar-17 10:00N 47°36' W 052°42'2 4.1 240 / 31012.2 -1.8-3.2
2017-Mar-17 09:23N 47°34' W 052°42'0 0.0
2017-Mar-17 08:29N 47°34' W 052°42'2 5.1
2017-Mar-17 08:00N 47°36' W 052°42'2 4.9 220 / 51011.6 -1.2-3.2
2017-Mar-17 07:29N 47°34' W 052°42'2 5.1
2017-Mar-17 07:00N 47°36' W 052°42'2 5.4 210 / 11010.8 -1.2-3.4
2017-Mar-17 06:32N 47°34' W 052°42'2 4.6
2017-Mar-17 06:00N 47°36' W 052°42'2 5.4 230 / 31010.9 -0.7-3.4
2017-Mar-17 05:32N 47°34' W 052°42'0 0.0
2017-Mar-17 04:29N 47°34' W 052°42'2 5.1
2017-Mar-17 04:00N 47°36' W 052°42'2 4.9 220 / 51010.5 -0.3-2.7
2017-Mar-17 03:29N 47°34' W 052°42'2 5.1
2017-Mar-17 03:00N 47°36' W 052°42'2 4.9 220 / 61010.3 0.1-2.4
2017-Mar-17 02:29N 47°34' W 052°42'2 5.1
2017-Mar-17 02:00N 47°36' W 052°42'2 4.5 220 / 71009.6 0.5-2.6
2017-Mar-17 01:26N 47°34' W 052°42'2 5.7
2017-Mar-17 01:00N 47°36' W 052°42'2 5.4 220 / 81009.3 0.7-2.3
2017-Mar-17 00:32N 47°34' W 052°42'2 4.6
2017-Mar-17 00:00N 47°36' W 052°42'0 0.0 230 / 71008.4 1.0-2.0
2017-Mar-16 23:00N 47°36' W 052°42'2 4.9 230 / 91007.5 1.6-2.0
2017-Mar-16 22:29N 47°34' W 052°42'2 5.1
2017-Mar-16 22:00N 47°36' W 052°42'2 4.5 220 / 131007.0 2.2-1.1
2017-Mar-16 21:26N 47°34' W 052°42'2 5.7
2017-Mar-16 21:00N 47°36' W 052°42'2 4.5 240 / 101006.8 2.8-0.7
2017-Mar-16 20:26N 47°34' W 052°42'2 5.7
2017-Mar-16 20:00N 47°36' W 052°42'2 4.5 230 / 121006.3 3.4-0.7
2017-Mar-16 19:26N 47°34' W 052°42'2 5.7
2017-Mar-16 19:00N 47°36' W 052°42'2 4.9 240 / 101005.7 4.3 0.2
2017-Mar-16 18:29N 47°34' W 052°42'2 5.1
2017-Mar-16 18:00N 47°36' W 052°42'2 5.4 230 / 81004.4 6.0 0.9
2017-Mar-16 17:32N 47°34' W 052°42'2 4.6
2017-Mar-16 17:00N 47°36' W 052°42'2 4.9 240 / 81004.4 5.4 0.5
2017-Mar-16 16:29N 47°34' W 052°42'2 5.1
2017-Mar-16 16:00N 47°36' W 052°42'2 4.9 250 / 111004.2 4.9-0.0
2017-Mar-16 15:29N 47°34' W 052°42'2 5.1
2017-Mar-16 15:00N 47°36' W 052°42'2 4.9 240 / 81003.8 5.1 0.5
2017-Mar-16 14:29N 47°34' W 052°42'2 5.1
2017-Mar-16 14:00N 47°36' W 052°42'2 4.9 250 / 121003.4 5.6 1.4
2017-Mar-16 13:29N 47°34' W 052°42'2 5.1
2017-Mar-16 13:00N 47°36' W 052°42'0 0.0 240 / 101002.2 5.8 3.0
2017-Mar-16 12:00N 47°36' W 052°42'0 0.0 230 / 111001.4 5.7 3.9
2017-Mar-16 11:00N 47°36' W 052°42'2 5.4 230 / 10999.5 6.7 6.3
2017-Mar-16 10:32N 47°34' W 052°42'2 4.6
2017-Mar-16 10:00N 47°36' W 052°42'2 4.9 230 / 10998.6 8.7 8.6
2017-Mar-16 09:29N 47°34' W 052°42'2 5.1
2017-Mar-16 09:00N 47°36' W 052°42'2 4.9 220 / 11998.0 9.7 9.5
2017-Mar-16 08:29N 47°34' W 052°42'2 5.1
2017-Mar-16 08:00N 47°36' W 052°42'2 1.7 220 / 15997.5 10.210.1
2017-Mar-16 06:32N 47°34' W 052°42'2 4.6
2017-Mar-16 06:00N 47°36' W 052°42'2 5.4 220 / 14998.9 9.7 9.5
2017-Mar-16 05:32N 47°34' W 052°42'2 4.6
2017-Mar-16 05:00N 47°36' W 052°42'2 5.4 200 / 9999.2 10.1 9.9
2017-Mar-16 04:32N 47°34' W 052°42'2 4.6
2017-Mar-16 04:00N 47°36' W 052°42'2 4.9 210 / 91001.4 8.8 8.7
2017-Mar-16 03:29N 47°34' W 052°42'2 5.1
2017-Mar-16 03:00N 47°36' W 052°42'2 4.9 200 / 11002.5 7.0 6.9
2017-Mar-16 02:29N 47°34' W 052°42'2 5.1
2017-Mar-16 02:00N 47°36' W 052°42'2 4.9 260 / 11005.0 6.3 6.2
2017-Mar-16 01:29N 47°34' W 052°42'2 5.1
2017-Mar-16 01:00N 47°36' W 052°42'2 4.9 240 / 11006.0 6.2 6.1
2017-Mar-16 00:29N 47°34' W 052°42'2 5.1
2017-Mar-16 00:00N 47°36' W 052°42'2 5.4 100 / 11005.4 5.4 5.3
2017-Mar-15 23:32N 47°34' W 052°42'2 4.6
2017-Mar-15 23:00N 47°36' W 052°42'2 5.4 200 / 11005.3 5.6 5.4
2017-Mar-15 22:32N 47°34' W 052°42'2 4.6
2017-Mar-15 22:00N 47°36' W 052°42'2 3.8 220 / 121005.3 7.4 7.3
2017-Mar-15 21:20N 47°34' W 052°42'2 7.3
2017-Mar-15 21:00N 47°36' W 052°42'2 5.4 220 / 141005.2 8.4 8.3
2017-Mar-15 20:32N 47°34' W 052°42'2 4.6
2017-Mar-15 20:00N 47°36' W 052°42'2 5.4 220 / 91006.2 7.0 6.9
2017-Mar-15 19:32N 47°34' W 052°42'2 4.6
2017-Mar-15 19:00N 47°36' W 052°42'2 4.9 230 / 111006.6 4.8 4.6
2017-Mar-15 18:29N 47°34' W 052°42'2 5.1
2017-Mar-15 18:00N 47°36' W 052°42'2 4.9 240 / 61008.1 2.4 2.3
2017-Mar-15 17:29N 47°34' W 052°42'2 5.1
2017-Mar-15 17:00N 47°36' W 052°42'2 5.4 220 / 41010.1 1.5 1.3
2017-Mar-15 16:32N 47°34' W 052°42'2 4.6
2017-Mar-15 16:00N 47°36' W 052°42'2 4.9 190 / 61013.0 0.8 0.6
2017-Mar-15 15:29N 47°34' W 052°42'2 5.1
2017-Mar-15 15:00N 47°36' W 052°42'2 3.8 210 / 61014.8 0.1-0.1
2017-Mar-15 14:20N 47°34' W 052°42'2 7.3
2017-Mar-15 14:00N 47°36' W 052°42'2 4.9 210 / 21018.0 -0.4-0.6
2017-Mar-15 13:29N 47°34' W 052°42'2 5.1
2017-Mar-15 13:00N 47°36' W 052°42'2 4.9 140 / 41020.6 -1.0-1.3
2017-Mar-15 12:29N 47°34' W 052°42'2 5.1
2017-Mar-15 12:00N 47°36' W 052°42'2 4.9 230 / 11022.9 -0.7-1.5
2017-Mar-15 11:29N 47°34' W 052°42'2 5.1
2017-Mar-15 11:00N 47°36' W 052°42'2 4.9 300 / 11025.3 -1.3-1.5
2017-Mar-15 10:29N 47°34' W 052°42'2 5.1
2017-Mar-15 10:00N 47°36' W 052°42'2 4.5 110 / 31025.4 -1.7-1.9
2017-Mar-15 09:26N 47°34' W 052°42'2 5.7
2017-Mar-15 09:00N 47°36' W 052°42'2 5.4 210 / 31028.1 -1.5-2.1
2017-Mar-15 08:32N 47°34' W 052°42'2 4.6
2017-Mar-15 08:00N 47°36' W 052°42'2 4.9 100 / 11029.3 -1.4-2.6
2017-Mar-15 07:29N 47°34' W 052°42'2 5.1
2017-Mar-15 07:00N 47°36' W 052°42'2 4.9 220 / 21031.1 -1.7-2.6
2017-Mar-15 06:29N 47°34' W 052°42'2 5.1
2017-Mar-15 06:00N 47°36' W 052°42'2 4.9 180 / 11032.1 -4.1-5.3
2017-Mar-15 05:29N 47°34' W 052°42'2 5.1
2017-Mar-15 05:00N 47°36' W 052°42'2 4.9 1032.6 -4.6-6.1
2017-Mar-15 04:29N 47°34' W 052°42'2 5.1
2017-Mar-15 04:00N 47°36' W 052°42'2 4.9 210 / 21033.3 -4.3-6.3
2017-Mar-15 03:29N 47°34' W 052°42'2 5.1
2017-Mar-15 03:00N 47°36' W 052°42'2 4.9 220 / 41033.1 -3.7-6.4
2017-Mar-15 02:29N 47°34' W 052°42'2 5.1
2017-Mar-15 02:00N 47°36' W 052°42'2 4.9 220 / 51033.7 -2.9-6.4
2017-Mar-15 01:29N 47°34' W 052°42'2 5.1
2017-Mar-15 01:00N 47°36' W 052°42'2 4.9 210 / 31034.7 -2.0-6.3
2017-Mar-15 00:29N 47°34' W 052°42'2 5.1
2017-Mar-15 00:00N 47°36' W 052°42'2 4.9 220 / 61035.0 -1.4-6.2
2017-Mar-14 23:29N 47°34' W 052°42'2 5.1
2017-Mar-14 23:00N 47°36' W 052°42'2 4.9 240 / 51034.4 -0.7-5.4
2017-Mar-14 22:29N 47°34' W 052°42'2 5.1
2017-Mar-14 22:00N 47°36' W 052°42'2 4.9 240 / 61034.2 -0.0-5.8
2017-Mar-14 21:29N 47°34' W 052°42'2 5.1
2017-Mar-14 21:00N 47°36' W 052°42'2 4.9 250 / 61033.4 0.7-6.8
2017-Mar-14 20:29N 47°34' W 052°42'2 5.1
2017-Mar-14 20:00N 47°36' W 052°42'2 4.9 260 / 81033.4 2.0-7.1
2017-Mar-14 19:29N 47°34' W 052°42'2 5.1
2017-Mar-14 19:00N 47°36' W 052°42'2 4.9 250 / 81033.5 2.5-8.1
2017-Mar-14 18:29N 47°34' W 052°42'2 5.1
2017-Mar-14 18:00N 47°36' W 052°42'2 4.9 240 / 71033.5 2.7-8.5
2017-Mar-14 17:29N 47°34' W 052°42'2 5.1
2017-Mar-14 17:00N 47°36' W 052°42'   250 / 71033.1 2.1-7.8

Dump ship's entire track history